EDDC Airport Information

Runway Information
Runway 04 Length 8228 ft width 167 ft
Elevation 755 ft Threshold 0 ft Heading 41
Runway 22 Length 8228 ft Width 167 ft
Elevation 703 ft Threshold 0 ft Heading 221
Airport Frequencies
Type AFIS Name MUNCHEN IN Frequency 125.8 MHZ
Type APP Name MUNCHEN RA Frequency 125.625 MHZ
Type ATIS Name ATIS Frequency 118.875 MHZ
Type GND Name GND Frequency 121.9 MHZ
Type RMP Name APRON Frequency 121.75 MHZ
Type TWR Name TWR Frequency 119.7 MHZ
Airport Navaids
Type DME Name Dresden Frequency 115400 KHZ
Type VOR-DME Name Dresden Frequency 114350 KHZ
Airport Weather Information & NOTAM
ADDS - METARS form results

(0913 UTC 26 February 2021)
Data provider http://aviationweather.gov/metar/data/
 
METAR text: EDDC 260850Z 30006KT 270V330 9999 BKN011 08/06 Q1028 BECMG BKN008
Conditions at: EDDC (DRESDEN/KLOTZSCH, DE) observed 0850 UTC 26 February 2021
Temperature: 8.0°C (46°F)
Dewpoint: 6.0°C (43°F) [RH = 87%]
Pressure (altimeter): 30.35 inches Hg (1028.0 mb)
Winds: from the WNW (300 degrees) at 7 MPH (6 knots; 3.1 m/s)
Visibility: 6 or more miles (10+ km)
Ceiling: 1100 feet AGL
Clouds: broken clouds at 1100 feet AGL
Weather: no significant weather observed at this time

METAR text: EDDC 260820Z 29005KT 9999 SCT010 08/05 Q1028 BECMG BKN008
Conditions at: EDDC (DRESDEN/KLOTZSCH, DE) observed 0820 UTC 26 February 2021
Temperature: 8.0°C (46°F)
Dewpoint: 5.0°C (41°F) [RH = 81%]
Pressure (altimeter): 30.35 inches Hg (1028.0 mb)
Winds: from the WNW (290 degrees) at 6 MPH (5 knots; 2.6 m/s)
Visibility: 6 or more miles (10+ km)
Ceiling: at least 12,000 feet AGL
Clouds: scattered clouds at 1000 feet AGL
Weather: no significant weather observed at this time

Forecast for: EDDC (DRESDEN/KLOTZSCH, DE)
Text: TAF EDDC 260500Z 2606/2706 20006KT 9999 SCT030 BKN040
Forecast period: 0600 to 0700 UTC 26 February 2021
Forecast type: FROM: standard forecast or significant change
Winds: from the SSW (200 degrees) at 7 MPH (6 knots; 3.1 m/s)
Visibility: 6 or more miles (10+ km)
Ceiling: 4000 feet AGL
Clouds: scattered clouds at 3000 feet AGL
broken clouds at 4000 feet AGL
Weather: no significant weather forecast for this period
Text: BECMG 2607/2609 29007KT
Forecast period: 0700 UTC 26 February 2021 to 0600 UTC 27 February 2021
Forecast type: BECOMING: Conditions expected to become as follows by 0900 UTC 26 February 2021
Winds: from the WNW (290 degrees) at 8 MPH (7 knots; 3.6 m/s)
Visibility: 6 or more miles (10+ km)
Ceiling: 4000 feet AGL
Clouds: scattered clouds at 3000 feet AGL
broken clouds at 4000 feet AGL
Weather: no significant weather forecast for this period
Text: PROB30
Forecast period: 1000 to 1600 UTC 26 February 2021
Forecast type: TEMPORARY: The following changes expected for less than half the time period
Visibility: 2.49 miles (4.01 km)
Ceiling: 1200 feet AGL
Clouds: broken clouds at 1200 feet AGL
Weather: -RA  (light rain)